Portada
METAR-TAF:

METAR-TAF

Aeropuertos :

Ibiza, España

Aeropuerto de Ibiza

latitud: 38-52N, longitud: 001-23E, altitud: 7 m

Observación

El informe se hizo hace 19 minutos, a las 18:00 UTC
Viento 5 kt del suroeste, variando entre sur y oeste
Temperatura 26°C
Humedad 70%
Presión 1018 hPa
Visibilidad 10 km o más
sin nubes por debajo de 1500 m y sin presencia de cumulonimbus.

METAR: LEIB 221800Z 22005KT 190V260 CAVOK 26/20 Q1018 NOSIG

Hora: 20:19 (18:19 UTC)

Pronóstico

El informe se hizo hace 4 horas y 19 minutos, a las 14:00 UTC
Pronóstico válido del 22 a las 15 UTC al 23 a las 15 UTC
Viento 8 kt del sur-suroeste
Visibilidad 10 km o más
Escasas nubes a una altura de 2000 ft
Temporalmente
del 22 a las 18 UTC al 23 a las 07 UTC
Viento 3 kt con dirección variable

TAF: LEIB 221400Z 2215/2315 20008KT 9999 FEW020 TX29/2312Z TN21/2305Z TEMPO 2218/2307 VRB03KT

Observaciones y pronósticos meteorológicos de más de 4000 aeropuertos (mensajes METAR y TAF).

Los puntos amarillos y rojos representan las estaciones disponibles.

Ponga el ratón en el punto deseado para ver el nombre de la estación.

Haga clic para ver las observaciones y los pronósticos meteorológicos.

Para cambiar el mapa : haga clic en los botones verdes con una cruz de color negro para hacer un zoom, en el botón verde con un guión para alejar o en las flechas verdes para mapas adyacentes.


METAR-TAF: